CT4 weather

CLOSED Budworm City Airport
New Brunswick, Canada

Public forecast

Using degrees Celsius for public forecast. Weather courtesy of forecast.io.

METAR (pilot weather report)

Closest report is Bathurst Airport, 36.6 nm (67.7 km) E. Retrieved 2019/05/26 10:00 UTC (31 minutes ago):

CZBF 261000Z AUTO 18005KT 9SM OVC130 12/04 A2987 RMK SLP117

TAF (pilot weather forecast)

Closest forecast is Bathurst Airport, 36.6 nm (67.7 km) E. Retrieved 2019/05/26 09:42 UTC (49 minutes ago):

TAF TAF CZBF 260838Z 2609/2621 18005KT P6SM OVC150 FM261200 20010KT P6SM OVC080 TEMPO 2612/2614 P6SM -SHRA FM261400 18012G22KT P6SM -RA SCT015 OVC025 TEMPO 2614/2620 5SM -RA BR BKN015 OVC025 FM262000 16012KT 6SM -RA BR FEW008 OVC020 TEMPO 2620/2621 3SM -RA BR BKN008 OVC020 RMK FCST BASED ON AUTO OBS. NXT FCST BY 261400Z